createdAt,value
2018-07-02T00:00:10.726Z,36.60
2018-07-02T00:02:39.267Z,35.50
2018-07-02T00:05:07.949Z,35.20
2018-07-02T00:07:36.401Z,35.80
2018-07-02T00:10:05.142Z,36.10
2018-07-02T00:12:33.606Z,35.10
2018-07-02T00:15:01.987Z,34.90
2018-07-02T00:17:30.341Z,35.80
2018-07-02T00:19:58.665Z,35.20
2018-07-02T00:22:27.086Z,35.20
2018-07-02T00:24:55.401Z,35.20
2018-07-02T00:27:23.790Z,35.20
2018-07-02T00:29:52.129Z,34.50
2018-07-02T00:32:20.489Z,34.40
2018-07-02T00:34:48.846Z,34.40
2018-07-02T00:37:17.244Z,34.30
2018-07-02T00:39:45.660Z,34.50
2018-07-02T00:42:14.022Z,34.20
2018-07-02T00:44:42.371Z,34.90
2018-07-02T00:47:10.753Z,35.70
2018-07-02T00:49:42.992Z,35.80
2018-07-02T00:52:11.331Z,34.80
2018-07-02T00:54:39.669Z,35.80
2018-07-02T00:57:08.017Z,35.20
2018-07-02T00:59:36.387Z,35.50
2018-07-02T01:02:04.735Z,35.70
2018-07-02T01:04:33.136Z,35.20
2018-07-02T01:07:01.528Z,35.30
2018-07-02T01:09:29.909Z,35.40
2018-07-02T01:11:58.213Z,34.70
2018-07-02T01:14:26.643Z,35.00
2018-07-02T01:16:54.959Z,34.80
2018-07-02T01:19:23.325Z,35.20
2018-07-02T01:21:51.682Z,35.70
2018-07-02T01:24:20.018Z,36.40
2018-07-02T01:26:48.444Z,35.90
2018-07-02T01:29:16.806Z,35.40
2018-07-02T01:31:45.202Z,35.20
2018-07-02T01:34:13.513Z,35.40
2018-07-02T01:36:41.871Z,34.90
2018-07-02T01:39:10.717Z,35.60
2018-07-02T01:41:39.073Z,35.60
2018-07-02T01:44:07.462Z,36.70
2018-07-02T01:46:35.793Z,36.10
2018-07-02T01:49:04.366Z,35.70
2018-07-02T01:51:32.869Z,36.20
2018-07-02T01:54:01.235Z,36.50
2018-07-02T01:56:29.632Z,35.70
2018-07-02T01:58:58.032Z,36.70
2018-07-02T02:01:26.374Z,36.10
2018-07-02T02:03:54.784Z,36.40
2018-07-02T02:06:23.192Z,36.30
2018-07-02T02:08:51.577Z,36.80
2018-07-02T02:11:20.085Z,36.40
2018-07-02T02:13:48.491Z,37.00
2018-07-02T02:16:16.859Z,37.20
2018-07-02T02:18:45.171Z,37.40
2018-07-02T02:21:13.522Z,36.80
2018-07-02T02:23:41.877Z,36.70
2018-07-02T02:26:10.328Z,36.90
2018-07-02T02:28:38.673Z,37.10
2018-07-02T02:31:07.110Z,37.60
2018-07-02T02:33:36.107Z,37.30
2018-07-02T02:36:04.490Z,37.70
2018-07-02T02:38:32.841Z,37.40
2018-07-02T02:41:01.524Z,37.50
2018-07-02T02:43:29.956Z,37.60
2018-07-02T02:45:58.382Z,37.80
2018-07-02T02:48:26.686Z,38.20
2018-07-02T02:50:55.035Z,38.30
2018-07-02T02:53:23.351Z,38.50
2018-07-02T02:55:51.947Z,39.00
2018-07-02T02:58:20.258Z,39.70
2018-07-02T03:00:48.614Z,40.00
2018-07-02T03:03:16.968Z,41.20
2018-07-02T03:05:45.321Z,41.80
2018-07-02T03:08:13.673Z,41.70
2018-07-02T03:10:42.066Z,41.90
2018-07-02T03:13:10.685Z,42.40
2018-07-02T03:15:39.089Z,42.00
2018-07-02T03:18:07.424Z,42.50
2018-07-02T03:20:35.737Z,42.40
2018-07-02T03:23:04.048Z,42.80
2018-07-02T03:25:32.570Z,43.80
2018-07-02T03:28:00.917Z,44.20
2018-07-02T03:30:29.317Z,44.50
2018-07-02T03:32:57.642Z,44.30
2018-07-02T03:35:25.978Z,44.00
2018-07-02T03:37:54.307Z,43.90
2018-07-02T03:40:22.661Z,43.70
2018-07-02T03:42:51.062Z,43.90
2018-07-02T03:45:19.346Z,45.20
2018-07-02T03:47:47.665Z,45.10
2018-07-02T03:50:16.007Z,45.00
2018-07-02T03:52:44.430Z,45.10
2018-07-02T03:55:12.853Z,45.00
2018-07-02T03:57:41.193Z,45.20
2018-07-02T04:00:09.566Z,45.10
2018-07-02T04:02:37.910Z,45.30
2018-07-02T04:05:06.378Z,45.00
2018-07-02T04:07:34.714Z,45.20
2018-07-02T04:10:03.170Z,45.30
2018-07-02T04:12:31.630Z,45.30
2018-07-02T04:14:59.977Z,45.40
2018-07-02T04:17:28.349Z,45.00
2018-07-02T04:19:56.638Z,45.00
2018-07-02T04:22:24.995Z,44.80
2018-07-02T04:24:53.394Z,45.30
2018-07-02T04:27:21.786Z,45.90
2018-07-02T04:29:50.155Z,45.30
2018-07-02T04:32:19.389Z,45.60
2018-07-02T04:37:15.912Z,42.50
2018-07-02T04:39:44.346Z,42.20
2018-07-02T04:42:12.731Z,41.90
2018-07-02T04:44:41.084Z,42.00
2018-07-02T04:47:09.621Z,42.00
2018-07-02T04:49:37.945Z,42.00
2018-07-02T04:52:06.405Z,41.50
2018-07-02T04:54:34.919Z,42.00
2018-07-02T04:57:03.333Z,42.20
2018-07-02T04:59:32.595Z,41.50
2018-07-02T05:02:00.972Z,41.30
2018-07-02T05:04:29.305Z,41.30
2018-07-02T05:06:57.671Z,41.40
2018-07-02T05:09:25.940Z,41.80
2018-07-02T05:11:54.290Z,41.60
2018-07-02T05:14:22.606Z,41.30
2018-07-02T05:16:50.938Z,40.60
2018-07-02T05:19:19.217Z,41.10
2018-07-02T05:21:47.546Z,41.90
2018-07-02T05:24:15.910Z,41.60
2018-07-02T05:26:44.313Z,40.80
2018-07-02T05:29:12.649Z,40.70
2018-07-02T05:31:41.009Z,40.70
2018-07-02T05:34:09.359Z,40.80
2018-07-02T05:36:37.726Z,40.40
2018-07-02T05:39:09.559Z,40.60
2018-07-02T05:41:37.900Z,41.60
2018-07-02T05:44:06.329Z,41.10
2018-07-02T05:46:34.699Z,40.60
2018-07-02T05:49:03.236Z,40.10
2018-07-02T05:51:31.680Z,39.80
2018-07-02T05:54:00.049Z,39.70
2018-07-02T05:56:28.441Z,40.00
2018-07-02T05:58:56.852Z,40.70
2018-07-02T06:01:25.346Z,39.70
2018-07-02T06:03:53.742Z,39.50
2018-07-02T06:06:22.218Z,39.30
2018-07-02T06:11:18.849Z,38.80
2018-07-02T06:13:47.197Z,39.10
2018-07-02T06:16:15.539Z,39.40
2018-07-02T06:18:43.837Z,38.60
2018-07-02T06:21:12.275Z,38.40
2018-07-02T06:23:40.830Z,38.20
2018-07-02T06:26:09.265Z,38.20
2018-07-02T06:28:37.697Z,38.40
2018-07-02T06:31:06.181Z,38.40
2018-07-02T06:33:34.535Z,38.20
2018-07-02T06:36:02.914Z,37.60
2018-07-02T06:38:31.217Z,37.80
2018-07-02T06:40:59.565Z,37.80
2018-07-02T06:43:28.039Z,37.10
2018-07-02T06:45:56.390Z,37.80
2018-07-02T06:48:24.775Z,37.40
2018-07-02T06:50:53.083Z,37.70
2018-07-02T06:53:21.369Z,37.50
2018-07-02T06:55:49.749Z,37.80
2018-07-02T06:58:18.069Z,36.80
2018-07-02T07:03:14.777Z,36.50
2018-07-02T07:05:43.094Z,36.50
2018-07-02T07:08:11.445Z,36.40
2018-07-02T07:10:39.802Z,35.80
2018-07-02T07:13:08.182Z,35.60
2018-07-02T07:15:36.831Z,35.80
2018-07-02T07:18:05.383Z,34.90
2018-07-02T07:20:33.727Z,35.00
2018-07-02T07:23:02.103Z,35.20
2018-07-02T07:25:30.490Z,35.30
2018-07-02T07:27:58.930Z,35.40
2018-07-02T07:30:27.286Z,35.30
2018-07-02T07:32:55.757Z,35.50
2018-07-02T07:35:24.115Z,34.90
2018-07-02T07:37:52.445Z,35.60
2018-07-02T07:40:20.794Z,33.50
2018-07-02T07:42:49.120Z,34.00
2018-07-02T07:45:17.667Z,34.30
2018-07-02T07:47:46.048Z,34.70
2018-07-02T07:50:14.402Z,34.70
2018-07-02T07:52:42.753Z,34.20
2018-07-02T07:55:11.122Z,34.50
2018-07-02T07:57:39.477Z,33.60
2018-07-02T08:00:07.894Z,33.10
2018-07-02T08:02:36.475Z,33.50
2018-07-02T08:05:05.726Z,32.80
2018-07-02T08:07:34.010Z,32.20
2018-07-02T08:10:02.360Z,33.10
2018-07-02T08:12:30.712Z,32.40
2018-07-02T08:14:59.112Z,31.80
2018-07-02T08:17:27.489Z,32.30
2018-07-02T08:19:55.862Z,31.60
2018-07-02T08:22:24.225Z,31.40
2018-07-02T08:24:52.534Z,31.70
2018-07-02T08:27:20.965Z,31.00
2018-07-02T08:29:49.319Z,31.90
2018-07-02T08:32:17.622Z,30.20
2018-07-02T08:34:45.953Z,31.00
2018-07-02T08:37:14.388Z,30.30
2018-07-02T08:39:42.771Z,30.80
2018-07-02T08:42:11.071Z,30.40
2018-07-02T08:44:39.417Z,29.90
2018-07-02T08:47:07.748Z,29.30
2018-07-02T08:49:36.088Z,29.50
2018-07-02T08:52:04.421Z,29.50
2018-07-02T08:54:32.742Z,30.00
2018-07-02T08:57:01.054Z,30.00
2018-07-02T08:59:29.374Z,30.00
2018-07-02T09:01:57.710Z,29.70
2018-07-02T09:04:25.997Z,29.90
2018-07-02T09:06:54.747Z,30.70
2018-07-02T09:09:23.064Z,30.00
2018-07-02T09:11:51.381Z,29.20
2018-07-02T09:14:19.781Z,29.70
2018-07-02T09:16:48.096Z,30.60
2018-07-02T09:19:16.429Z,29.40
2018-07-02T09:21:44.892Z,29.50
2018-07-02T09:24:13.237Z,29.90
2018-07-02T09:26:41.577Z,29.50
2018-07-02T09:29:09.941Z,29.60
2018-07-02T09:31:38.293Z,29.90
2018-07-02T09:34:06.739Z,29.60
2018-07-02T09:36:35.114Z,28.90
2018-07-02T09:39:06.046Z,28.60
2018-07-02T09:41:34.449Z,29.10
2018-07-02T09:44:02.882Z,30.00
2018-07-02T09:46:31.302Z,29.40
2018-07-02T09:48:59.730Z,28.80
2018-07-02T09:51:28.115Z,28.80
2018-07-02T09:53:56.961Z,28.80
2018-07-02T09:56:25.304Z,28.40
2018-07-02T09:58:53.758Z,28.90
2018-07-02T10:01:22.230Z,27.50
2018-07-02T10:03:50.517Z,27.60
2018-07-02T10:06:18.957Z,27.60
2018-07-02T10:08:47.318Z,27.10
2018-07-02T10:11:15.640Z,27.40
2018-07-02T10:13:44.037Z,28.10
2018-07-02T10:16:12.350Z,27.70
2018-07-02T10:18:40.785Z,27.30
2018-07-02T10:21:09.584Z,28.20
2018-07-02T10:23:38.049Z,27.20
2018-07-02T10:26:06.521Z,26.00
2018-07-02T10:28:34.874Z,26.70
2018-07-02T10:31:03.339Z,27.10
2018-07-02T10:33:31.605Z,27.10
2018-07-02T10:36:00.010Z,27.40
2018-07-02T10:38:28.453Z,27.10
2018-07-02T10:40:56.814Z,27.20
2018-07-02T10:43:25.171Z,26.80
2018-07-02T10:45:53.521Z,26.70
2018-07-02T10:48:21.853Z,26.40
2018-07-02T10:50:50.273Z,26.00
2018-07-02T10:53:18.651Z,25.00
2018-07-02T10:55:47.102Z,25.70
2018-07-02T10:58:15.573Z,26.30
2018-07-02T11:00:43.951Z,26.70
2018-07-02T11:03:12.373Z,26.70
2018-07-02T11:05:40.738Z,26.80
2018-07-02T11:08:09.118Z,26.50
2018-07-02T11:10:37.499Z,26.70
2018-07-02T11:13:11.621Z,26.20
2018-07-02T11:15:41.386Z,25.70
2018-07-02T11:20:39.062Z,25.20
2018-07-02T11:25:36.725Z,25.70
2018-07-02T11:30:33.525Z,26.20
2018-07-02T11:33:01.999Z,25.30
2018-07-02T11:35:30.486Z,25.90
2018-07-02T11:37:58.813Z,25.80
2018-07-02T11:40:27.114Z,25.70
2018-07-02T11:42:55.414Z,26.10
2018-07-02T11:45:23.742Z,26.20
2018-07-02T11:47:52.153Z,26.00
2018-07-02T11:50:20.510Z,25.90
2018-07-02T11:52:48.845Z,25.60
2018-07-02T11:55:17.216Z,25.90
2018-07-02T11:57:45.594Z,25.90
2018-07-02T12:00:14.014Z,25.80
2018-07-02T12:02:42.354Z,25.90
2018-07-02T12:05:10.723Z,25.70
2018-07-02T12:07:39.041Z,26.00
2018-07-02T12:10:07.419Z,26.20
2018-07-02T12:15:04.543Z,26.00
2018-07-02T12:17:32.929Z,25.80
2018-07-02T12:20:01.318Z,26.10
2018-07-02T12:22:29.658Z,25.50
2018-07-02T12:24:58.005Z,25.60
2018-07-02T12:27:26.340Z,24.80
2018-07-02T12:29:54.664Z,24.70
2018-07-02T12:32:23.065Z,25.30
2018-07-02T12:34:51.453Z,25.40
2018-07-02T12:37:19.933Z,25.50
2018-07-02T12:39:48.310Z,25.40
2018-07-02T12:42:16.712Z,25.50
2018-07-02T12:44:45.054Z,25.40
2018-07-02T12:47:13.373Z,25.50
2018-07-02T12:49:41.801Z,25.50
2018-07-02T12:52:11.002Z,26.10
2018-07-02T12:54:39.361Z,25.70
2018-07-02T12:57:07.780Z,25.90
2018-07-02T12:59:36.172Z,26.40
2018-07-02T13:02:04.937Z,25.30
2018-07-02T13:04:33.334Z,25.10
2018-07-02T13:07:01.694Z,25.50
2018-07-02T13:09:30.050Z,25.80
2018-07-02T13:11:58.673Z,25.20
2018-07-02T13:16:55.290Z,25.30
2018-07-02T13:19:23.729Z,25.10
2018-07-02T13:21:52.146Z,25.00
2018-07-02T22:29:31.812Z,36.00
2018-07-02T22:32:00.148Z,35.90
2018-07-02T22:34:28.542Z,36.40
2018-07-02T22:36:56.996Z,36.20
2018-07-02T22:39:25.347Z,37.00
2018-07-02T22:41:53.679Z,36.90
2018-07-02T22:44:22.100Z,36.90
2018-07-02T22:46:50.429Z,36.80
2018-07-02T22:49:18.753Z,36.80
2018-07-02T22:51:47.158Z,37.20
2018-07-02T22:54:15.547Z,37.20
2018-07-02T22:56:43.935Z,37.20
2018-07-02T22:59:12.408Z,37.20
2018-07-02T23:01:40.952Z,38.00
2018-07-02T23:04:09.337Z,37.50
2018-07-02T23:06:37.664Z,37.60
2018-07-02T23:09:08.997Z,37.60
2018-07-02T23:11:37.417Z,38.40
2018-07-02T23:14:06.009Z,38.20
2018-07-02T23:16:34.381Z,38.60
2018-07-02T23:19:02.710Z,38.40
2018-07-02T23:21:31.374Z,38.80
2018-07-02T23:23:59.734Z,38.90
2018-07-02T23:26:28.082Z,38.80
2018-07-02T23:28:56.403Z,39.10
2018-07-02T23:31:24.727Z,39.50
2018-07-02T23:33:53.059Z,39.40
2018-07-02T23:36:21.406Z,39.70
2018-07-02T23:41:18.037Z,39.90
2018-07-02T23:43:46.362Z,39.70
2018-07-02T23:46:14.750Z,39.80
2018-07-02T23:48:43.049Z,40.00
2018-07-02T23:51:11.472Z,40.00
2018-07-02T23:53:39.770Z,40.20
2018-07-02T23:56:08.121Z,40.40
2018-07-02T23:58:36.530Z,40.40
